createdAt,value
2022-12-03T05:00:32.685Z,0.48
2022-12-03T05:04:35.435Z,0.51
2022-12-03T05:08:38.037Z,0.48
2022-12-03T05:12:40.665Z,0.48
2022-12-03T05:16:44.711Z,0.58
2022-12-03T05:20:53.176Z,0.67
2022-12-03T05:24:56.686Z,0.68
2022-12-03T05:28:59.478Z,0.69
2022-12-03T05:33:03.616Z,0.72
2022-12-03T05:37:06.317Z,0.62
2022-12-03T05:41:22.892Z,0.63
2022-12-03T05:45:29.391Z,0.87
2022-12-03T05:49:33.377Z,0.97
2022-12-03T05:53:36.026Z,0.97
2022-12-03T05:57:38.981Z,0.92
2022-12-03T06:01:41.585Z,1.03
2022-12-03T06:05:45.671Z,1.13
2022-12-03T06:09:48.263Z,1.08
2022-12-03T06:13:50.962Z,1.17
2022-12-03T06:17:53.609Z,1.21
2022-12-03T06:21:57.650Z,1.27
2022-12-03T06:26:00.434Z,1.23
2022-12-03T06:30:03.145Z,1.19
2022-12-03T06:34:05.750Z,1.37
2022-12-03T06:38:09.703Z,1.42
2022-12-03T06:42:12.377Z,1.37
2022-12-03T06:46:15.063Z,1.28
2022-12-03T06:50:18.346Z,1.33
2022-12-03T06:54:22.381Z,1.28
2022-12-03T06:58:25.058Z,1.00
2022-12-03T07:02:27.757Z,0.81
2022-12-03T07:06:30.407Z,0.86
2022-12-03T07:10:34.358Z,0.93
2022-12-03T07:14:36.994Z,0.95
2022-12-03T07:18:39.630Z,0.90
2022-12-03T07:22:42.245Z,0.85
2022-12-03T07:26:46.180Z,0.98
2022-12-03T07:30:48.894Z,0.97
2022-12-03T07:34:51.995Z,1.03
2022-12-03T07:38:55.043Z,0.99
2022-12-03T07:42:58.980Z,0.95
2022-12-03T07:47:01.703Z,0.98
2022-12-03T07:51:04.516Z,1.12
2022-12-03T07:55:08.082Z,1.11
2022-12-03T07:59:12.065Z,1.12
2022-12-03T08:03:14.680Z,1.23
2022-12-03T08:07:17.291Z,1.11
2022-12-03T08:11:19.973Z,1.23
2022-12-03T08:15:25.655Z,1.25
2022-12-03T08:19:28.264Z,1.18
2022-12-03T08:23:30.912Z,1.14
2022-12-03T08:27:34.586Z,1.19
2022-12-03T08:31:38.798Z,1.05
2022-12-03T08:35:45.328Z,1.00
2022-12-03T08:39:49.688Z,1.23
2022-12-03T08:43:52.536Z,1.17
2022-12-03T08:47:58.091Z,1.22
2022-12-03T08:52:02.234Z,1.07
2022-12-03T08:56:14.069Z,1.17
2022-12-03T09:00:21.471Z,1.19
2022-12-03T09:04:29.988Z,1.10
2022-12-03T09:08:32.681Z,1.24
2022-12-03T09:12:35.595Z,1.23
2022-12-03T09:16:38.383Z,1.07
2022-12-03T09:20:42.353Z,1.05
2022-12-03T09:24:45.074Z,0.74
2022-12-03T09:28:48.273Z,0.82
2022-12-03T09:32:50.960Z,1.10
2022-12-03T09:36:54.994Z,1.21
2022-12-03T09:40:57.627Z,1.25
2022-12-03T09:45:01.141Z,1.24
2022-12-03T09:49:04.718Z,1.37
2022-12-03T09:53:14.007Z,1.52
2022-12-03T09:57:19.343Z,1.73
2022-12-03T10:01:22.240Z,1.83
2022-12-03T10:05:25.783Z,1.99
2022-12-03T10:09:30.387Z,2.04
2022-12-03T10:13:34.563Z,1.92
2022-12-03T10:17:37.292Z,1.95
2022-12-03T10:21:40.374Z,2.16
2022-12-03T10:25:55.065Z,2.29
2022-12-03T10:29:59.320Z,2.30
2022-12-03T10:34:01.921Z,2.20
2022-12-03T10:38:06.867Z,2.38
2022-12-03T10:42:16.848Z,2.40
2022-12-03T10:46:21.588Z,2.40
2022-12-03T10:50:24.273Z,2.49
2022-12-03T10:54:28.544Z,2.24
2022-12-03T10:58:37.065Z,2.20
2022-12-03T11:02:41.104Z,2.11
2022-12-03T11:06:43.873Z,2.15
2022-12-03T11:10:47.319Z,2.06
2022-12-03T11:15:07.610Z,2.03
2022-12-03T11:19:17.328Z,1.92
2022-12-03T11:24:21.458Z,2.06
2022-12-03T11:28:35.932Z,2.05
2022-12-03T11:33:22.275Z,1.84
2022-12-03T11:37:31.166Z,1.84
2022-12-03T11:41:35.970Z,1.92
2022-12-03T11:45:39.769Z,2.13
2022-12-03T11:49:49.823Z,2.21
2022-12-03T11:53:54.201Z,2.40
2022-12-03T11:58:00.429Z,2.51
2022-12-03T12:02:20.930Z,2.44
2022-12-03T12:06:23.551Z,2.52
2022-12-03T12:10:47.132Z,2.84
2022-12-03T12:14:51.156Z,2.42
2022-12-03T12:18:55.338Z,2.29
2022-12-03T12:23:23.031Z,2.16
2022-12-03T12:27:35.915Z,2.01
2022-12-03T12:31:39.979Z,2.30
2022-12-03T12:35:43.220Z,2.43
2022-12-03T12:39:46.177Z,2.20
2022-12-03T12:43:48.779Z,2.05
2022-12-03T12:48:03.121Z,1.79
2022-12-03T12:52:06.819Z,1.87
2022-12-03T12:56:21.882Z,1.78
2022-12-03T13:00:24.773Z,1.61
2022-12-03T13:04:31.494Z,1.73
2022-12-03T13:08:39.018Z,1.75
2022-12-03T13:12:41.867Z,1.72
2022-12-03T13:16:45.374Z,1.89
2022-12-03T13:20:50.674Z,1.89
2022-12-03T13:25:00.126Z,1.97
2022-12-03T13:29:07.513Z,2.05
2022-12-03T13:33:15.901Z,1.84
2022-12-03T13:37:23.268Z,1.79
2022-12-03T13:41:54.829Z,1.63
2022-12-03T13:45:57.690Z,1.74
2022-12-03T13:50:04.367Z,1.60
2022-12-03T13:54:16.076Z,1.57
2022-12-03T13:58:18.966Z,1.38
2022-12-03T14:02:21.759Z,1.43
2022-12-03T14:06:24.443Z,1.42
2022-12-03T14:10:29.712Z,1.43
2022-12-03T14:14:32.394Z,1.42
2022-12-03T14:18:34.989Z,1.46
2022-12-03T14:22:39.066Z,1.26
2022-12-03T14:26:44.398Z,1.27
2022-12-03T14:30:47.237Z,1.34
2022-12-03T14:34:50.042Z,1.31
2022-12-03T14:38:52.975Z,1.45
2022-12-03T14:42:57.010Z,1.48
2022-12-03T14:46:59.616Z,1.63
2022-12-03T14:51:02.237Z,1.54
2022-12-03T14:55:05.483Z,1.45
2022-12-03T14:59:09.575Z,1.43
2022-12-03T15:03:12.211Z,1.43
2022-12-03T15:07:14.839Z,1.38
2022-12-03T15:11:17.563Z,1.43
2022-12-03T15:15:21.640Z,1.47
2022-12-03T15:19:24.545Z,1.63
2022-12-03T15:23:27.280Z,1.49
2022-12-03T15:27:30.181Z,1.45
2022-12-03T15:31:34.323Z,1.42
2022-12-03T15:35:37.176Z,1.53
2022-12-03T15:39:45.074Z,1.75
2022-12-03T15:43:52.250Z,1.76
2022-12-03T15:47:56.310Z,1.78
2022-12-03T15:51:59.116Z,1.64
2022-12-03T15:56:01.919Z,1.60
2022-12-03T16:00:06.109Z,1.48
2022-12-03T16:04:16.158Z,1.48
2022-12-03T16:08:18.898Z,1.50
2022-12-03T16:12:21.630Z,1.54
2022-12-03T16:16:24.379Z,1.60
2022-12-03T16:20:28.744Z,1.58
2022-12-03T16:24:31.454Z,1.60
2022-12-03T16:28:34.070Z,1.60
2022-12-03T16:32:36.739Z,1.57
2022-12-03T16:36:40.837Z,1.58
2022-12-03T16:40:43.538Z,1.57
2022-12-03T16:45:15.069Z,1.59
2022-12-03T16:49:17.909Z,1.54
2022-12-03T16:53:22.145Z,1.53
2022-12-03T16:57:33.183Z,1.50
2022-12-03T17:01:36.556Z,1.50
2022-12-03T17:05:39.257Z,1.51
2022-12-03T17:09:43.251Z,1.59
2022-12-03T17:13:45.937Z,1.47
2022-12-03T17:17:48.603Z,1.46
2022-12-03T17:21:51.283Z,1.54
2022-12-03T17:25:55.352Z,1.48
2022-12-03T17:29:57.949Z,1.33
2022-12-03T17:34:00.788Z,1.41
2022-12-03T17:38:03.530Z,1.42
2022-12-03T17:42:07.635Z,1.44
2022-12-03T17:46:10.371Z,1.43
2022-12-03T17:50:13.545Z,1.39
2022-12-03T17:54:16.229Z,1.33
2022-12-03T17:58:20.288Z,1.38
2022-12-03T18:02:37.972Z,1.37
2022-12-03T18:06:40.810Z,1.31
2022-12-03T18:10:43.511Z,1.25
2022-12-03T18:14:47.664Z,1.14
2022-12-03T18:18:56.216Z,1.16
2022-12-03T18:23:00.402Z,1.12
2022-12-03T18:27:03.271Z,1.15
2022-12-03T18:31:14.401Z,1.10
2022-12-03T18:35:17.964Z,1.03
2022-12-03T18:39:26.349Z,1.01
2022-12-03T18:43:35.634Z,0.98
2022-12-03T18:47:40.241Z,1.00
2022-12-03T18:51:43.081Z,0.93
2022-12-03T18:55:47.678Z,0.87
2022-12-03T18:59:54.483Z,0.82
2022-12-03T19:03:58.644Z,0.85
2022-12-03T19:08:01.446Z,0.86
2022-12-03T19:12:05.845Z,0.82
2022-12-03T19:16:12.007Z,0.87
2022-12-03T19:20:16.491Z,0.96
2022-12-03T19:24:26.263Z,1.06
2022-12-03T19:28:30.035Z,1.07
2022-12-03T19:32:32.731Z,1.09
2022-12-03T19:36:36.755Z,1.10
2022-12-03T19:40:39.449Z,1.17
2022-12-03T19:44:42.358Z,1.27
2022-12-03T19:48:45.271Z,1.35
2022-12-03T19:52:49.285Z,1.35
2022-12-03T19:56:52.069Z,1.34
2022-12-03T20:00:54.841Z,1.25
2022-12-03T20:04:57.583Z,1.20
2022-12-03T20:09:04.263Z,1.26
2022-12-03T20:13:07.009Z,1.28
2022-12-03T20:17:09.731Z,1.26
2022-12-03T20:21:14.508Z,1.18
2022-12-03T20:25:18.751Z,1.00
2022-12-03T20:29:21.450Z,1.04
2022-12-03T20:33:24.159Z,1.00
2022-12-03T20:37:26.967Z,1.06
2022-12-03T20:41:31.082Z,1.12
2022-12-03T20:45:33.834Z,1.11
2022-12-03T20:49:38.959Z,1.19
2022-12-03T20:53:42.546Z,1.33
2022-12-03T20:57:46.586Z,1.28
2022-12-03T21:01:49.573Z,1.16
2022-12-03T21:06:00.504Z,1.20
2022-12-03T21:10:03.914Z,1.08
2022-12-03T21:14:08.915Z,1.01
2022-12-03T21:18:14.069Z,0.98
2022-12-03T21:22:16.682Z,0.83
2022-12-03T21:26:21.271Z,0.76
2022-12-03T21:30:25.559Z,0.79
2022-12-03T21:34:34.355Z,0.90
2022-12-03T21:38:39.354Z,1.00
2022-12-03T21:42:42.854Z,1.00
2022-12-03T21:47:11.157Z,1.03
2022-12-03T21:51:12.440Z,1.07
2022-12-03T21:55:15.194Z,1.05
2022-12-03T21:59:17.818Z,1.05
